Welcome to the New NWS' Forecast!
Most changes are behind the scenes, but click here for differences you might notice.

Terminal Aerodrome Forecast (TAF)

Issued by National Weather Service (NWS)

                            
505 
FTUS42 KMFL 171913 AAA
TAFMIA
TAF AMD
KMIA 171913Z 1719/1824 11012KT P6SM VCSH SCT030 SCT250
      TEMPO 1719/1721 5SM TSRA BKN030CB BKN050
     FM180000 09005KT P6SM FEW025 SCT060
     FM181300 10010KT P6SM VCSH SCT025 SCT060=